sensor_id;sensor_type;location;lat;lon;timestamp;pressure;altitude;pressure_sealevel;temperature;humidity
29379;BME280;16362;47.202;15.258;2023-07-08T00:01:13;96804.44;;;13.13;100.00
29379;BME280;16362;47.202;15.258;2023-07-08T00:03:42;96807.75;;;13.15;100.00
29379;BME280;16362;47.202;15.258;2023-07-08T00:08:42;96803.94;;;13.09;100.00
29379;BME280;16362;47.202;15.258;2023-07-08T00:11:14;96807.16;;;13.05;100.00
29379;BME280;16362;47.202;15.258;2023-07-08T00:13:48;96810.03;;;13.03;100.00
29379;BME280;16362;47.202;15.258;2023-07-08T00:16:16;96801.31;;;13.01;100.00
29379;BME280;16362;47.202;15.258;2023-07-08T00:18:53;96803.53;;;12.97;100.00
29379;BME280;16362;47.202;15.258;2023-07-08T00:21:26;96809.88;;;12.96;100.00
29379;BME280;16362;47.202;15.258;2023-07-08T00:23:55;96803.84;;;12.94;100.00
29379;BME280;16362;47.202;15.258;2023-07-08T00:26:25;96798.50;;;12.94;100.00
29379;BME280;16362;47.202;15.258;2023-07-08T00:28:56;96796.69;;;12.95;100.00
29379;BME280;16362;47.202;15.258;2023-07-08T00:31:27;96798.69;;;12.93;100.00
29379;BME280;16362;47.202;15.258;2023-07-08T00:34:08;96793.69;;;12.90;100.00
29379;BME280;16362;47.202;15.258;2023-07-08T00:36:35;96789.50;;;12.87;100.00
29379;BME280;16362;47.202;15.258;2023-07-08T00:39:01;96787.00;;;12.86;100.00
29379;BME280;16362;47.202;15.258;2023-07-08T00:41:38;96782.47;;;12.86;100.00
29379;BME280;16362;47.202;15.258;2023-07-08T00:44:12;96783.84;;;12.82;100.00
29379;BME280;16362;47.202;15.258;2023-07-08T00:49:26;96782.03;;;12.74;100.00
29379;BME280;16362;47.202;15.258;2023-07-08T00:51:56;96781.03;;;12.75;100.00
29379;BME280;16362;47.202;15.258;2023-07-08T00:54:26;96781.38;;;12.72;100.00
29379;BME280;16362;47.202;15.258;2023-07-08T00:56:59;96772.69;;;12.70;100.00
29379;BME280;16362;47.202;15.258;2023-07-08T00:59:33;96781.91;;;12.68;100.00
29379;BME280;16362;47.202;15.258;2023-07-08T01:02:05;96777.56;;;12.67;100.00
29379;BME280;16362;47.202;15.258;2023-07-08T01:04:53;96774.41;;;12.63;100.00
29379;BME280;16362;47.202;15.258;2023-07-08T01:07:25;96777.25;;;12.61;100.00
29379;BME280;16362;47.202;15.258;2023-07-08T01:10:03;96776.25;;;12.62;100.00
29379;BME280;16362;47.202;15.258;2023-07-08T01:12:39;96776.25;;;12.62;100.00
29379;BME280;16362;47.202;15.258;2023-07-08T01:15:23;96774.41;;;12.63;100.00
29379;BME280;16362;47.202;15.258;2023-07-08T01:17:52;96777.09;;;12.63;100.00
29379;BME280;16362;47.202;15.258;2023-07-08T01:20:21;96772.09;;;12.60;100.00
29379;BME280;16362;47.202;15.258;2023-07-08T01:22:51;96776.75;;;12.58;100.00
29379;BME280;16362;47.202;15.258;2023-07-08T01:25:20;96775.09;;;12.57;100.00
29379;BME280;16362;47.202;15.258;2023-07-08T01:27:54;96774.94;;;12.58;100.00
29379;BME280;16362;47.202;15.258;2023-07-08T01:30:22;96779.25;;;12.59;100.00
29379;BME280;16362;47.202;15.258;2023-07-08T01:33:04;96769.41;;;12.60;100.00
29379;BME280;16362;47.202;15.258;2023-07-08T01:35:36;96774.41;;;12.63;100.00
29379;BME280;16362;47.202;15.258;2023-07-08T01:38:05;96769.22;;;12.61;100.00
29379;BME280;16362;47.202;15.258;2023-07-08T01:40:49;96761.56;;;12.58;100.00
29379;BME280;16362;47.202;15.258;2023-07-08T01:43:27;96766.06;;;12.58;100.00
29379;BME280;16362;47.202;15.258;2023-07-08T01:45:58;96757.56;;;12.54;100.00
29379;BME280;16362;47.202;15.258;2023-07-08T01:48:37;96764.38;;;12.57;100.00
29379;BME280;16362;47.202;15.258;2023-07-08T01:51:06;96761.25;;;12.53;100.00
29379;BME280;16362;47.202;15.258;2023-07-08T01:53:42;96768.59;;;12.51;100.00
29379;BME280;16362;47.202;15.258;2023-07-08T01:56:10;96766.91;;;12.50;100.00
29379;BME280;16362;47.202;15.258;2023-07-08T01:58:38;96770.44;;;12.51;100.00
29379;BME280;16362;47.202;15.258;2023-07-08T02:01:07;96767.09;;;12.49;100.00
29379;BME280;16362;47.202;15.258;2023-07-08T02:03:35;96774.66;;;12.45;100.00
29379;BME280;16362;47.202;15.258;2023-07-08T02:06:08;96772.97;;;12.44;100.00
29379;BME280;16362;47.202;15.258;2023-07-08T02:08:51;96782.19;;;12.41;100.00
29379;BME280;16362;47.202;15.258;2023-07-08T02:11:21;96783.00;;;12.42;100.00
29379;BME280;16362;47.202;15.258;2023-07-08T02:13:51;96780.69;;;12.39;100.00
29379;BME280;16362;47.202;15.258;2023-07-08T02:16:19;96770.69;;;12.33;100.00
29379;BME280;16362;47.202;15.258;2023-07-08T02:18:49;96776.69;;;12.35;100.00
29379;BME280;16362;47.202;15.258;2023-07-08T02:21:19;96779.72;;;12.32;100.00
29379;BME280;16362;47.202;15.258;2023-07-08T02:23:49;96782.22;;;12.33;100.00
29379;BME280;16362;47.202;15.258;2023-07-08T02:26:16;96772.34;;;12.34;100.00
29379;BME280;16362;47.202;15.258;2023-07-08T02:28:43;96778.88;;;12.31;100.00
29379;BME280;16362;47.202;15.258;2023-07-08T02:31:10;96780.72;;;12.30;100.00
29379;BME280;16362;47.202;15.258;2023-07-08T02:33:36;96781.72;;;12.29;100.00
29379;BME280;16362;47.202;15.258;2023-07-08T02:36:03;96781.25;;;12.26;100.00
29379;BME280;16362;47.202;15.258;2023-07-08T02:38:30;96776.38;;;12.29;100.00
29379;BME280;16362;47.202;15.258;2023-07-08T02:40:57;96780.22;;;12.27;100.00
29379;BME280;16362;47.202;15.258;2023-07-08T02:43:24;96775.06;;;12.25;100.00
29379;BME280;16362;47.202;15.258;2023-07-08T02:45:51;96779.75;;;12.23;100.00
29379;BME280;16362;47.202;15.258;2023-07-08T02:48:19;96782.44;;;12.23;100.00
29379;BME280;16362;47.202;15.258;2023-07-08T02:50:46;96785.28;;;12.22;100.00
29379;BME280;16362;47.202;15.258;2023-07-08T02:53:16;96793.16;;;12.15;100.00
29379;BME280;16362;47.202;15.258;2023-07-08T02:55:42;96785.00;;;12.08;100.00
29379;BME280;16362;47.202;15.258;2023-07-08T02:58:16;96779.13;;;12.05;100.00
29379;BME280;16362;47.202;15.258;2023-07-08T03:01:02;96781.13;;;12.03;100.00
29379;BME280;16362;47.202;15.258;2023-07-08T03:03:32;96763.09;;;11.96;100.00
29379;BME280;16362;47.202;15.258;2023-07-08T03:06:02;96781.84;;;11.96;100.00
29379;BME280;16362;47.202;15.258;2023-07-08T03:08:37;96774.81;;;11.95;100.00
29379;BME280;16362;47.202;15.258;2023-07-08T03:11:05;96785.66;;;11.94;100.00
29379;BME280;16362;47.202;15.258;2023-07-08T03:13:36;96777.47;;;11.95;100.00
29379;BME280;16362;47.202;15.258;2023-07-08T03:16:04;96775.47;;;11.98;100.00
29379;BME280;16362;47.202;15.258;2023-07-08T03:18:39;96776.31;;;11.98;100.00
29379;BME280;16362;47.202;15.258;2023-07-08T03:21:14;96774.31;;;12.00;100.00
29379;BME280;16362;47.202;15.258;2023-07-08T03:23:41;96782.66;;;11.97;100.00
29379;BME280;16362;47.202;15.258;2023-07-08T03:26:13;96776.81;;;11.93;100.00
29379;BME280;16362;47.202;15.258;2023-07-08T03:28:52;96782.97;;;11.94;100.00
29379;BME280;16362;47.202;15.258;2023-07-08T03:31:25;96775.13;;;11.92;100.00
29379;BME280;16362;47.202;15.258;2023-07-08T03:33:56;96773.97;;;11.95;100.00
29379;BME280;16362;47.202;15.258;2023-07-08T03:36:23;96771.44;;;11.93;100.00
29379;BME280;16362;47.202;15.258;2023-07-08T03:39:00;96769.28;;;11.97;100.00
29379;BME280;16362;47.202;15.258;2023-07-08T03:41:37;96773.28;;;12.01;100.00
29379;BME280;16362;47.202;15.258;2023-07-08T03:44:08;96773.28;;;12.01;100.00
29379;BME280;16362;47.202;15.258;2023-07-08T03:46:35;96768.97;;;12.00;100.00
29379;BME280;16362;47.202;15.258;2023-07-08T03:49:04;96762.75;;;12.00;100.00
29379;BME280;16362;47.202;15.258;2023-07-08T03:51:35;96773.81;;;11.96;100.00
29379;BME280;16362;47.202;15.258;2023-07-08T03:54:09;96776.81;;;11.93;100.00
29379;BME280;16362;47.202;15.258;2023-07-08T03:56:38;96782.84;;;11.95;100.00
29379;BME280;16362;47.202;15.258;2023-07-08T03:59:05;96781.84;;;11.96;100.00
29379;BME280;16362;47.202;15.258;2023-07-08T04:01:32;96792.34;;;11.98;100.00
29379;BME280;16362;47.202;15.258;2023-07-08T04:03:59;96787.19;;;11.96;100.00
29379;BME280;16362;47.202;15.258;2023-07-08T04:06:27;96777.63;;;11.94;100.00
29379;BME280;16362;47.202;15.258;2023-07-08T04:08:55;96773.13;;;11.94;100.00
29379;BME280;16362;47.202;15.258;2023-07-08T04:11:23;96775.94;;;11.93;100.00
29379;BME280;16362;47.202;15.258;2023-07-08T04:13:50;96766.41;;;11.90;100.00
29379;BME280;16362;47.202;15.258;2023-07-08T04:16:21;96763.56;;;11.92;100.00
29379;BME280;16362;47.202;15.258;2023-07-08T04:18:50;96758.22;;;11.92;100.00
29379;BME280;16362;47.202;15.258;2023-07-08T04:21:22;96757.59;;;11.98;100.00
29379;BME280;16362;47.202;15.258;2023-07-08T04:23:49;96756.41;;;12.01;100.00
29379;BME280;16362;47.202;15.258;2023-07-08T04:26:18;96751.06;;;12.01;100.00
29379;BME280;16362;47.202;15.258;2023-07-08T04:28:47;96748.88;;;12.04;100.00
29379;BME280;16362;47.202;15.258;2023-07-08T04:31:17;96743.19;;;12.07;100.00
29379;BME280;16362;47.202;15.258;2023-07-08T04:33:47;96741.16;;;12.09;100.00
29379;BME280;16362;47.202;15.258;2023-07-08T04:36:16;96735.31;;;12.14;100.00
29379;BME280;16362;47.202;15.258;2023-07-08T04:38:43;96734.66;;;12.04;100.00
29379;BME280;16362;47.202;15.258;2023-07-08T04:41:13;96738.69;;;12.00;100.00
29379;BME280;16362;47.202;15.258;2023-07-08T04:43:46;96737.19;;;11.97;100.00
29379;BME280;16362;47.202;15.258;2023-07-08T04:46:20;96739.03;;;11.96;100.00
29379;BME280;16362;47.202;15.258;2023-07-08T04:48:50;96740.84;;;11.96;100.00
29379;BME280;16362;47.202;15.258;2023-07-08T04:51:17;96736.38;;;11.96;100.00
29379;BME280;16362;47.202;15.258;2023-07-08T04:53:48;96724.00;;;11.95;100.00
29379;BME280;16362;47.202;15.258;2023-07-08T04:56:20;96725.31;;;12.00;100.00
29379;BME280;16362;47.202;15.258;2023-07-08T04:58:56;96714.59;;;12.08;100.00
29379;BME280;16362;47.202;15.258;2023-07-08T05:01:26;96710.22;;;12.15;100.00
29379;BME280;16362;47.202;15.258;2023-07-08T05:03:53;96701.50;;;12.21;100.00
29379;BME280;16362;47.202;15.258;2023-07-08T05:06:21;96700.44;;;12.30;100.00
29379;BME280;16362;47.202;15.258;2023-07-08T05:08:51;96707.41;;;12.71;100.00
29379;BME280;16362;47.202;15.258;2023-07-08T05:11:17;96711.94;;;13.17;100.00
29379;BME280;16362;47.202;15.258;2023-07-08T05:13:45;96712.44;;;13.59;100.00
29379;BME280;16362;47.202;15.258;2023-07-08T05:16:12;96708.59;;;14.06;100.00
29379;BME280;16362;47.202;15.258;2023-07-08T05:18:40;96710.41;;;14.51;100.00
29379;BME280;16362;47.202;15.258;2023-07-08T05:21:06;96717.69;;;14.72;100.00
29379;BME280;16362;47.202;15.258;2023-07-08T05:23:35;96714.31;;;14.85;100.00
29379;BME280;16362;47.202;15.258;2023-07-08T05:26:16;96707.28;;;15.05;100.00
29379;BME280;16362;47.202;15.258;2023-07-08T05:28:44;96709.50;;;15.23;100.00
29379;BME280;16362;47.202;15.258;2023-07-08T05:31:11;96705.75;;;15.68;100.00
29379;BME280;16362;47.202;15.258;2023-07-08T05:33:52;96703.63;;;16.20;100.00
29379;BME280;16362;47.202;15.258;2023-07-08T05:36:20;96702.94;;;16.59;100.00
29379;BME280;16362;47.202;15.258;2023-07-08T05:38:48;96708.44;;;16.86;100.00
29379;BME280;16362;47.202;15.258;2023-07-08T05:41:14;96709.34;;;17.20;100.00
29379;BME280;16362;47.202;15.258;2023-07-08T05:43:41;96699.63;;;17.46;100.00
29379;BME280;16362;47.202;15.258;2023-07-08T05:46:09;96698.53;;;17.80;100.00
29379;BME280;16362;47.202;15.258;2023-07-08T05:48:38;96705.34;;;18.16;100.00
29379;BME280;16362;47.202;15.258;2023-07-08T05:51:06;96712.72;;;18.55;100.00
29379;BME280;16362;47.202;15.258;2023-07-08T05:53:32;96713.00;;;18.85;100.00
29379;BME280;16362;47.202;15.258;2023-07-08T05:56:02;96698.31;;;19.06;100.00
29379;BME280;16362;47.202;15.258;2023-07-08T05:58:30;96692.38;;;19.23;100.00
29379;BME280;16362;47.202;15.258;2023-07-08T06:00:57;96689.22;;;19.32;100.00
29379;BME280;16362;47.202;15.258;2023-07-08T06:03:25;96691.16;;;19.50;100.00
29379;BME280;16362;47.202;15.258;2023-07-08T06:05:53;96688.88;;;19.73;100.00
29379;BME280;16362;47.202;15.258;2023-07-08T06:08:19;96689.91;;;19.97;100.00
29379;BME280;16362;47.202;15.258;2023-07-08T06:10:47;96692.94;;;20.07;100.00
29379;BME280;16362;47.202;15.258;2023-07-08T06:13:14;96686.41;;;20.15;99.87
29379;BME280;16362;47.202;15.258;2023-07-08T06:15:42;96697.31;;;20.27;99.52
29379;BME280;16362;47.202;15.258;2023-07-08T06:18:10;96689.50;;;20.00;100.00
29379;BME280;16362;47.202;15.258;2023-07-08T06:20:51;96693.16;;;19.87;100.00
29379;BME280;16362;47.202;15.258;2023-07-08T06:23:19;96688.66;;;19.74;98.51
29379;BME280;16362;47.202;15.258;2023-07-08T06:25:51;96687.22;;;19.72;96.71
29379;BME280;16362;47.202;15.258;2023-07-08T06:28:20;96692.94;;;19.63;100.00
29379;BME280;16362;47.202;15.258;2023-07-08T06:30:49;96687.28;;;19.90;98.97
29379;BME280;16362;47.202;15.258;2023-07-08T06:33:18;96683.47;;;20.35;99.58
29379;BME280;16362;47.202;15.258;2023-07-08T06:35:46;96684.22;;;20.61;96.27
29379;BME280;16362;47.202;15.258;2023-07-08T06:38:23;96675.31;;;20.72;94.13
29379;BME280;16362;47.202;15.258;2023-07-08T06:40:57;96671.00;;;20.83;91.29
29379;BME280;16362;47.202;15.258;2023-07-08T06:43:26;96674.72;;;21.00;90.75
29379;BME280;16362;47.202;15.258;2023-07-08T06:45:57;96668.09;;;20.96;92.58
29379;BME280;16362;47.202;15.258;2023-07-08T06:48:29;96666.88;;;21.11;94.55
29379;BME280;16362;47.202;15.258;2023-07-08T06:50:58;96662.19;;;21.42;89.33
29379;BME280;16362;47.202;15.258;2023-07-08T06:53:28;96659.78;;;21.64;90.67
29379;BME280;16362;47.202;15.258;2023-07-08T06:55:55;96658.69;;;21.53;89.02
29379;BME280;16362;47.202;15.258;2023-07-08T06:58:22;96655.28;;;21.58;90.32
29379;BME280;16362;47.202;15.258;2023-07-08T07:00:48;96655.81;;;21.36;91.43
29379;BME280;16362;47.202;15.258;2023-07-08T07:03:16;96659.41;;;21.60;87.45
29379;BME280;16362;47.202;15.258;2023-07-08T07:05:47;96649.69;;;21.41;87.27
29379;BME280;16362;47.202;15.258;2023-07-08T07:08:14;96643.50;;;21.10;90.19
29379;BME280;16362;47.202;15.258;2023-07-08T07:10:42;96649.66;;;21.29;89.57
29379;BME280;16362;47.202;15.258;2023-07-08T07:13:11;96655.81;;;21.36;92.53
29379;BME280;16362;47.202;15.258;2023-07-08T07:15:39;96653.94;;;21.36;92.29
29379;BME280;16362;47.202;15.258;2023-07-08T07:18:06;96650.69;;;21.58;91.34
29379;BME280;16362;47.202;15.258;2023-07-08T07:20:36;96649.13;;;21.74;88.61
29379;BME280;16362;47.202;15.258;2023-07-08T07:23:03;96649.84;;;21.69;87.15
29379;BME280;16362;47.202;15.258;2023-07-08T07:25:30;96643.47;;;21.64;88.04
29379;BME280;16362;47.202;15.258;2023-07-08T07:27:57;96647.38;;;21.56;89.46
29379;BME280;16362;47.202;15.258;2023-07-08T07:30:25;96651.38;;;21.65;88.55
29379;BME280;16362;47.202;15.258;2023-07-08T07:32:52;96662.22;;;22.01;85.43
29379;BME280;16362;47.202;15.258;2023-07-08T07:35:19;96648.88;;;22.11;84.51
29379;BME280;16362;47.202;15.258;2023-07-08T07:37:45;96652.03;;;22.32;86.35
29379;BME280;16362;47.202;15.258;2023-07-08T07:42:42;96640.66;;;22.47;86.99
29379;BME280;16362;47.202;15.258;2023-07-08T07:45:11;96639.75;;;22.70;87.92
29379;BME280;16362;47.202;15.258;2023-07-08T07:47:40;96643.00;;;22.84;83.50
29379;BME280;16362;47.202;15.258;2023-07-08T07:50:08;96644.19;;;22.88;84.46
29379;BME280;16362;47.202;15.258;2023-07-08T07:52:43;96632.81;;;23.08;84.08
29379;BME280;16362;47.202;15.258;2023-07-08T07:55:13;96634.84;;;23.30;82.53
29379;BME280;16362;47.202;15.258;2023-07-08T07:57:41;96636.59;;;23.36;82.01
29379;BME280;16362;47.202;15.258;2023-07-08T08:00:09;96641.13;;;23.47;81.12
29379;BME280;16362;47.202;15.258;2023-07-08T08:02:37;96633.50;;;23.66;80.76
29379;BME280;16362;47.202;15.258;2023-07-08T08:05:04;96639.28;;;23.87;74.34
29379;BME280;16362;47.202;15.258;2023-07-08T08:07:31;96631.50;;;24.13;76.17
29379;BME280;16362;47.202;15.258;2023-07-08T08:10:15;96634.09;;;24.47;63.69
29379;BME280;16362;47.202;15.258;2023-07-08T08:12:43;96630.34;;;24.31;59.84
29379;BME280;16362;47.202;15.258;2023-07-08T08:15:22;96631.22;;;24.36;55.73
29379;BME280;16362;47.202;15.258;2023-07-08T08:17:51;96631.88;;;24.21;57.96
29379;BME280;16362;47.202;15.258;2023-07-08T08:20:28;96631.88;;;24.44;56.46
29379;BME280;16362;47.202;15.258;2023-07-08T08:23:01;96622.41;;;24.51;56.19
29379;BME280;16362;47.202;15.258;2023-07-08T08:25:27;96619.91;;;24.67;55.80
29379;BME280;16362;47.202;15.258;2023-07-08T08:28:05;96612.69;;;24.61;53.16
29379;BME280;16362;47.202;15.258;2023-07-08T08:30:33;96610.66;;;24.73;55.89
29379;BME280;16362;47.202;15.258;2023-07-08T08:33:05;96621.56;;;25.00;57.13
29379;BME280;16362;47.202;15.258;2023-07-08T08:35:33;96625.09;;;24.96;53.82
29379;BME280;16362;47.202;15.258;2023-07-08T08:38:03;96629.63;;;24.85;52.46
29379;BME280;16362;47.202;15.258;2023-07-08T08:40:31;96616.16;;;25.05;56.73
29379;BME280;16362;47.202;15.258;2023-07-08T08:43:31;96620.88;;;25.10;50.47
29379;BME280;16362;47.202;15.258;2023-07-08T08:46:04;96621.91;;;25.04;56.68
29379;BME280;16362;47.202;15.258;2023-07-08T08:48:41;96613.13;;;25.29;54.65
29379;BME280;16362;47.202;15.258;2023-07-08T08:51:13;96605.81;;;25.08;50.92
29379;BME280;16362;47.202;15.258;2023-07-08T08:53:43;96617.63;;;24.86;55.54
29379;BME280;16362;47.202;15.258;2023-07-08T08:56:22;96620.09;;;25.15;53.50
29379;BME280;16362;47.202;15.258;2023-07-08T08:58:58;96620.47;;;25.29;53.61
29379;BME280;16362;47.202;15.258;2023-07-08T09:01:29;96623.22;;;25.61;54.82
29379;BME280;16362;47.202;15.258;2023-07-08T09:04:00;96622.97;;;25.68;49.46
29379;BME280;16362;47.202;15.258;2023-07-08T09:06:33;96622.63;;;25.97;56.22
29379;BME280;16362;47.202;15.258;2023-07-08T09:09:05;96631.28;;;26.26;53.37
29379;BME280;16362;47.202;15.258;2023-07-08T09:19:42;96628.78;;;26.14;52.04
29379;BME280;16362;47.202;15.258;2023-07-08T09:22:35;96634.56;;;25.85;50.27
29379;BME280;16362;47.202;15.258;2023-07-08T09:25:30;96633.53;;;25.92;52.21
29379;BME280;16362;47.202;15.258;2023-07-08T09:28:01;96628.59;;;25.88;51.81
29379;BME280;16362;47.202;15.258;2023-07-08T09:30:35;96634.81;;;26.21;49.48
29379;BME280;16362;47.202;15.258;2023-07-08T09:33:09;96630.31;;;26.58;51.95
29379;BME280;16362;47.202;15.258;2023-07-08T09:35:48;96628.50;;;26.89;50.31
29379;BME280;16362;47.202;15.258;2023-07-08T09:38:24;96634.28;;;27.03;47.31
29379;BME280;16362;47.202;15.258;2023-07-08T09:40:53;96621.69;;;27.13;48.92
29379;BME280;16362;47.202;15.258;2023-07-08T09:43:34;96617.09;;;27.44;51.83
29379;BME280;16362;47.202;15.258;2023-07-08T09:46:02;96629.31;;;26.80;46.95
29379;BME280;16362;47.202;15.258;2023-07-08T09:48:35;96623.19;;;26.57;47.13
29379;BME280;16362;47.202;15.258;2023-07-08T09:51:04;96623.63;;;26.28;46.11
29379;BME280;16362;47.202;15.258;2023-07-08T09:53:38;96615.72;;;26.37;47.16
29379;BME280;16362;47.202;15.258;2023-07-08T09:56:08;96621.56;;;26.51;47.30
29379;BME280;16362;47.202;15.258;2023-07-08T09:58:42;96611.72;;;26.55;44.89
29379;BME280;16362;47.202;15.258;2023-07-08T10:01:22;96613.00;;;26.32;43.91
29379;BME280;16362;47.202;15.258;2023-07-08T10:03:51;96609.84;;;26.02;44.74
29379;BME280;16362;47.202;15.258;2023-07-08T10:06:30;96615.50;;;25.53;44.85
29379;BME280;16362;47.202;15.258;2023-07-08T10:09:08;96620.19;;;25.58;47.08
29379;BME280;16362;47.202;15.258;2023-07-08T10:11:44;96616.88;;;25.55;46.07
29379;BME280;16362;47.202;15.258;2023-07-08T10:14:32;96602.22;;;25.67;46.03
29379;BME280;16362;47.202;15.258;2023-07-08T10:17:01;96615.31;;;26.02;43.86
29379;BME280;16362;47.202;15.258;2023-07-08T10:19:28;96604.75;;;26.21;43.71
29379;BME280;16362;47.202;15.258;2023-07-08T10:27:22;96612.41;;;27.14;43.11
29379;BME280;16362;47.202;15.258;2023-07-08T10:30:47;96617.25;;;26.76;41.56
29379;BME280;16362;47.202;15.258;2023-07-08T10:35:35;96591.31;;;27.25;46.17
29379;BME280;16362;47.202;15.258;2023-07-08T10:40:58;96589.94;;;27.17;43.14
29379;BME280;16362;47.202;15.258;2023-07-08T10:49:02;96589.72;;;27.44;42.94
29379;BME280;16362;47.202;15.258;2023-07-08T10:52:01;96586.94;;;27.34;46.77
29379;BME280;16362;47.202;15.258;2023-07-08T11:00:43;96580.91;;;27.01;44.45
29379;BME280;16362;47.202;15.258;2023-07-08T11:03:44;96580.63;;;26.97;47.02
29379;BME280;16362;47.202;15.258;2023-07-08T11:06:11;96577.31;;;26.95;46.28
29379;BME280;16362;47.202;15.258;2023-07-08T11:08:46;96570.22;;;27.15;44.90
29379;BME280;16362;47.202;15.258;2023-07-08T11:17:14;96575.13;;;26.97;45.71
29379;BME280;16362;47.202;15.258;2023-07-08T11:19:55;96562.00;;;27.15;49.46
29379;BME280;16362;47.202;15.258;2023-07-08T11:23:00;96561.75;;;27.47;49.58
29379;BME280;16362;47.202;15.258;2023-07-08T11:25:33;96558.97;;;27.32;47.85
29379;BME280;16362;47.202;15.258;2023-07-08T11:28:04;96559.25;;;27.25;48.11
29379;BME280;16362;47.202;15.258;2023-07-08T11:30:38;96562.28;;;27.13;48.79
29379;BME280;16362;47.202;15.258;2023-07-08T11:33:12;96567.72;;;26.93;46.59
29379;BME280;16362;47.202;15.258;2023-07-08T11:35:44;96563.31;;;26.71;51.55
29379;BME280;16362;47.202;15.258;2023-07-08T11:38:20;96572.81;;;26.48;46.55
29379;BME280;16362;47.202;15.258;2023-07-08T11:41:00;96562.19;;;26.62;49.42
29379;BME280;16362;47.202;15.258;2023-07-08T11:43:34;96563.63;;;26.95;49.11
29379;BME280;16362;47.202;15.258;2023-07-08T11:46:15;96565.78;;;26.78;48.38
29379;BME280;16362;47.202;15.258;2023-07-08T11:48:48;96562.00;;;26.89;49.03
29379;BME280;16362;47.202;15.258;2023-07-08T11:51:24;96566.63;;;26.78;49.67
29379;BME280;16362;47.202;15.258;2023-07-08T11:54:13;96568.19;;;26.59;47.85
29379;BME280;16362;47.202;15.258;2023-07-08T11:59:26;96560.63;;;26.86;51.35
29379;BME280;16362;47.202;15.258;2023-07-08T12:02:15;96570.16;;;26.73;49.51
29379;BME280;16362;47.202;15.258;2023-07-08T12:05:00;96559.97;;;26.48;49.35
29379;BME280;16362;47.202;15.258;2023-07-08T12:07:32;96548.69;;;26.29;50.69
29379;BME280;16362;47.202;15.258;2023-07-08T12:10:05;96547.56;;;26.20;49.52
29379;BME280;16362;47.202;15.258;2023-07-08T12:12:36;96547.03;;;26.23;48.39
29379;BME280;16362;47.202;15.258;2023-07-08T12:15:22;96545.69;;;26.31;47.38
29379;BME280;16362;47.202;15.258;2023-07-08T12:17:52;96543.88;;;26.67;51.05
29379;BME280;16362;47.202;15.258;2023-07-08T12:20:30;96555.41;;;26.85;50.43
29379;BME280;16362;47.202;15.258;2023-07-08T12:22:59;96538.44;;;26.83;48.82
29379;BME280;16362;47.202;15.258;2023-07-08T12:25:31;96530.50;;;26.86;48.25
29379;BME280;16362;47.202;15.258;2023-07-08T12:28:03;96527.78;;;27.12;50.07
29379;BME280;16362;47.202;15.258;2023-07-08T12:30:44;96530.78;;;27.11;56.00
29379;BME280;16362;47.202;15.258;2023-07-08T12:33:22;96514.09;;;26.97;49.46
29379;BME280;16362;47.202;15.258;2023-07-08T12:36:01;96514.91;;;27.02;52.42
29379;BME280;16362;47.202;15.258;2023-07-08T12:38:40;96520.09;;;27.04;56.29
29379;BME280;16362;47.202;15.258;2023-07-08T12:41:17;96518.72;;;26.96;48.09
29379;BME280;16362;47.202;15.258;2023-07-08T12:43:45;96525.31;;;26.85;49.60
29379;BME280;16362;47.202;15.258;2023-07-08T12:46:14;96519.53;;;26.76;51.59
29379;BME280;16362;47.202;15.258;2023-07-08T12:48:44;96515.16;;;26.80;54.01
29379;BME280;16362;47.202;15.258;2023-07-08T12:51:23;96523.13;;;26.77;53.08
29379;BME280;16362;47.202;15.258;2023-07-08T12:53:52;96512.69;;;26.73;49.83
29379;BME280;16362;47.202;15.258;2023-07-08T12:56:23;96513.00;;;26.87;57.33
29379;BME280;16362;47.202;15.258;2023-07-08T12:58:53;96510.22;;;26.98;56.01
29379;BME280;16362;47.202;15.258;2023-07-08T13:01:25;96506.13;;;26.95;55.08
29379;BME280;16362;47.202;15.258;2023-07-08T13:03:59;96503.69;;;26.83;56.29
29379;BME280;16362;47.202;15.258;2023-07-08T13:06:30;96507.19;;;26.68;57.48
29379;BME280;16362;47.202;15.258;2023-07-08T13:11:33;96522.19;;;26.50;54.03
29379;BME280;16362;47.202;15.258;2023-07-08T13:14:14;96515.59;;;26.31;54.56
29379;BME280;16362;47.202;15.258;2023-07-08T13:16:42;96519.22;;;26.47;51.94
29379;BME280;16362;47.202;15.258;2023-07-08T13:19:12;96503.88;;;26.46;52.68
29379;BME280;16362;47.202;15.258;2023-07-08T13:21:45;96518.63;;;26.39;58.35
29379;BME280;16362;47.202;15.258;2023-07-08T13:24:15;96503.78;;;26.15;56.41
29379;BME280;16362;47.202;15.258;2023-07-08T13:26:46;96505.94;;;26.02;53.60
29379;BME280;16362;47.202;15.258;2023-07-08T13:29:17;96508.69;;;26.13;55.57
29379;BME280;16362;47.202;15.258;2023-07-08T13:32:05;96506.47;;;25.99;58.21
29379;BME280;16362;47.202;15.258;2023-07-08T13:34:33;96510.31;;;26.09;59.06
29379;BME280;16362;47.202;15.258;2023-07-08T13:37:00;96508.69;;;26.08;61.35
29379;BME280;16362;47.202;15.258;2023-07-08T13:39:32;96509.16;;;25.94;62.30
29379;BME280;16362;47.202;15.258;2023-07-08T13:42:18;96499.84;;;25.90;62.41
29379;BME280;16362;47.202;15.258;2023-07-08T13:44:46;96491.88;;;25.78;60.15
29379;BME280;16362;47.202;15.258;2023-07-08T13:47:23;96482.09;;;25.98;55.76
29379;BME280;16362;47.202;15.258;2023-07-08T13:49:57;96491.94;;;25.99;65.04
29379;BME280;16362;47.202;15.258;2023-07-08T13:52:24;96495.72;;;25.82;60.76
29379;BME280;16362;47.202;15.258;2023-07-08T13:55:01;96484.59;;;25.99;59.43
29379;BME280;16362;47.202;15.258;2023-07-08T13:57:33;96491.34;;;25.81;60.14
29379;BME280;16362;47.202;15.258;2023-07-08T14:00:00;96490.53;;;25.81;62.63